This is the latest recevied weather packets stored in our database for station/object K5UBE. If no packets are shown the sender has not sent any weather packets the latest 1 day(s).
| Time | Temp. | Humidity | Pressure | Rain* | Wind** | Luminosity | Snow |
|---|---|---|---|---|---|---|---|
| 1778035261 | 13.89° C | 51% | 1011.9 hPa | 0 mm | - | - | - |
| 1778034957 | 13.89° C | 51% | 1011.9 hPa | 0 mm | - | - | - |
| 1778034655 | 14.44° C | 50% | 1012 hPa | 0 mm | - | - | - |
| 1778034050 | 14.44° C | 50% | 1011.9 hPa | 0 mm | - | - | - |
| 1778033747 | 14.44° C | 50% | 1011.9 hPa | 0 mm | - | - | - |
| 1778033444 | 15° C | 50% | 1011.9 hPa | 0 mm | - | - | - |
| 1778033142 | 15° C | 50% | 1011.3 hPa | 0 mm | - | - | - |
| 1778032839 | 16.11° C | 48% | 1011.5 hPa | 0 mm | - | - | - |
| 1778032233 | 17.78° C | 43% | 1011 hPa | 0 mm | - | - | - |
| 1778031931 | 19.44° C | 37% | 1010.9 hPa | 0 mm | - | - | - |
| 1778031626 | 19.44° C | 35% | 1010.9 hPa | 0 mm | - | - | - |
| 1778031325 | 19.44° C | 36% | 1010.7 hPa | 0 mm | - | - | - |
| 1778031021 | 19.44° C | 35% | 1010.6 hPa | 0 mm | - | - | - |
| 1778030112 | 21.11° C | 31% | 1010.3 hPa | 0 mm | - | - | - |
| 1778029808 | 23.33° C | 26% | 1009.7 hPa | 0 mm | - | - | - |
| 1778028596 | 23.89° C | 26% | 1009 hPa | 0 mm | - | - | - |
| 1778028294 | 23.89° C | 26% | 1009 hPa | 0 mm | - | - | - |
| 1778027990 | 23.89° C | 26% | 1009 hPa | 0 mm | - | - | - |
| 1778027686 | 23.89° C | 25% | 1008.9 hPa | 0 mm | - | - | - |
| 1778027383 | 24.44° C | 25% | 1008.9 hPa | 0 mm | - | - | - |
| 1778027079 | 24.44° C | 25% | 1009.2 hPa | 0 mm | - | - | - |
| 1778026774 | 24.44° C | 26% | 1008.7 hPa | 0 mm | - | - | - |
| 1778026472 | 24.44° C | 26% | 1009 hPa | 0 mm | - | - | - |
| 1778026169 | 24.44° C | 25% | 1009 hPa | 0 mm | - | - | - |
| 1778024958 | 24.44° C | 26% | 1009.2 hPa | 0 mm | - | - | - |
* Rain latest hour (hover to see other rain measurements)
** Current wind speed in m/s (hover to see current wind gust speed)